Aviation Digital Data Service (ADDS)

Output produced by TAFs form (1854 UTC 01 October 2016)
found at http://aviationweather.gov/adds/tafs/
 
KTEX 011727Z 0118/0218 23003KT P6SM VCSH SCT080 SCT150 
     FM012100 26008KT P6SM VCSH SCT090 BKN130 
     FM020200 VRB03KT P6SM SCT140 
     FM021400 14005KT P6SM SKC